sensor_id;sensor_type;location;lat;lon;timestamp;P1;durP1;ratioP1;P2;durP2;ratioP2
7239;SDS011;3661;53.288;10.458;2023-08-01T00:01:43;1892.15;;;999.90;;
7239;SDS011;3661;53.288;10.458;2023-08-01T00:04:15;1898.10;;;999.90;;
7239;SDS011;3661;53.288;10.458;2023-08-01T00:06:47;1882.90;;;999.90;;
7239;SDS011;3661;53.288;10.458;2023-08-01T00:09:21;1902.43;;;999.90;;
7239;SDS011;3661;53.288;10.458;2023-08-01T00:11:54;1906.38;;;999.90;;
7239;SDS011;3661;53.288;10.458;2023-08-01T00:14:26;1908.95;;;999.90;;
7239;SDS011;3661;53.288;10.458;2023-08-01T00:17:03;1902.25;;;999.90;;
7239;SDS011;3661;53.288;10.458;2023-08-01T00:19:37;1905.30;;;999.90;;
7239;SDS011;3661;53.288;10.458;2023-08-01T00:22:17;1903.95;;;999.90;;
7239;SDS011;3661;53.288;10.458;2023-08-01T00:24:51;1895.07;;;999.90;;
7239;SDS011;3661;53.288;10.458;2023-08-01T00:27:23;1892.95;;;999.90;;
7239;SDS011;3661;53.288;10.458;2023-08-01T00:29:55;1889.05;;;999.90;;
7239;SDS011;3661;53.288;10.458;2023-08-01T00:32:28;1876.72;;;999.90;;
7239;SDS011;3661;53.288;10.458;2023-08-01T00:35:00;1879.45;;;999.90;;
7239;SDS011;3661;53.288;10.458;2023-08-01T00:37:33;1893.25;;;999.90;;
7239;SDS011;3661;53.288;10.458;2023-08-01T00:40:07;1890.50;;;999.90;;
7239;SDS011;3661;53.288;10.458;2023-08-01T00:42:40;1880.63;;;999.90;;
7239;SDS011;3661;53.288;10.458;2023-08-01T00:45:12;1885.10;;;999.90;;
7239;SDS011;3661;53.288;10.458;2023-08-01T00:47:44;1898.22;;;999.90;;
7239;SDS011;3661;53.288;10.458;2023-08-01T00:50:16;1888.47;;;999.90;;
7239;SDS011;3661;53.288;10.458;2023-08-01T00:52:50;1892.80;;;999.90;;
7239;SDS011;3661;53.288;10.458;2023-08-01T00:55:25;1883.07;;;999.90;;
7239;SDS011;3661;53.288;10.458;2023-08-01T00:58:01;1870.43;;;999.90;;
7239;SDS011;3661;53.288;10.458;2023-08-01T01:00:34;1900.38;;;999.90;;
7239;SDS011;3661;53.288;10.458;2023-08-01T01:03:06;1884.50;;;999.90;;
7239;SDS011;3661;53.288;10.458;2023-08-01T01:05:39;1871.07;;;999.90;;
7239;SDS011;3661;53.288;10.458;2023-08-01T01:08:20;1894.00;;;999.90;;
7239;SDS011;3661;53.288;10.458;2023-08-01T01:10:54;1889.57;;;999.90;;
7239;SDS011;3661;53.288;10.458;2023-08-01T01:13:28;1865.80;;;999.90;;
7239;SDS011;3661;53.288;10.458;2023-08-01T01:16:01;1866.18;;;999.90;;
7239;SDS011;3661;53.288;10.458;2023-08-01T01:18:33;1879.82;;;999.90;;
7239;SDS011;3661;53.288;10.458;2023-08-01T01:21:08;1879.60;;;999.90;;
7239;SDS011;3661;53.288;10.458;2023-08-01T01:23:43;1889.55;;;999.90;;
7239;SDS011;3661;53.288;10.458;2023-08-01T01:26:16;1889.88;;;999.90;;
7239;SDS011;3661;53.288;10.458;2023-08-01T01:28:51;1890.25;;;999.90;;
7239;SDS011;3661;53.288;10.458;2023-08-01T01:31:24;1878.23;;;999.90;;
7239;SDS011;3661;53.288;10.458;2023-08-01T01:33:56;1878.47;;;999.90;;
7239;SDS011;3661;53.288;10.458;2023-08-01T01:36:32;1870.30;;;999.90;;
7239;SDS011;3661;53.288;10.458;2023-08-01T01:39:04;1883.22;;;999.90;;
7239;SDS011;3661;53.288;10.458;2023-08-01T01:41:37;1869.87;;;999.90;;
7239;SDS011;3661;53.288;10.458;2023-08-01T01:44:09;1895.95;;;999.90;;
7239;SDS011;3661;53.288;10.458;2023-08-01T01:46:41;1870.47;;;999.90;;
7239;SDS011;3661;53.288;10.458;2023-08-01T01:49:13;1867.00;;;999.90;;
7239;SDS011;3661;53.288;10.458;2023-08-01T01:51:47;1876.27;;;999.90;;
7239;SDS011;3661;53.288;10.458;2023-08-01T01:54:19;1880.07;;;999.90;;
7239;SDS011;3661;53.288;10.458;2023-08-01T01:56:52;1864.43;;;999.90;;
7239;SDS011;3661;53.288;10.458;2023-08-01T01:59:24;1862.28;;;999.90;;
7239;SDS011;3661;53.288;10.458;2023-08-01T02:01:58;1860.22;;;999.90;;
7239;SDS011;3661;53.288;10.458;2023-08-01T02:04:34;1888.97;;;999.90;;
7239;SDS011;3661;53.288;10.458;2023-08-01T02:07:09;1869.55;;;999.90;;
7239;SDS011;3661;53.288;10.458;2023-08-01T02:09:42;1860.57;;;999.90;;
7239;SDS011;3661;53.288;10.458;2023-08-01T02:12:14;1869.72;;;999.90;;
7239;SDS011;3661;53.288;10.458;2023-08-01T02:14:47;1868.20;;;999.90;;
7239;SDS011;3661;53.288;10.458;2023-08-01T02:17:20;1879.90;;;999.90;;
7239;SDS011;3661;53.288;10.458;2023-08-01T02:19:56;1868.60;;;999.90;;
7239;SDS011;3661;53.288;10.458;2023-08-01T02:22:30;1880.10;;;999.90;;
7239;SDS011;3661;53.288;10.458;2023-08-01T02:25:02;1881.68;;;999.90;;
7239;SDS011;3661;53.288;10.458;2023-08-01T02:27:34;1883.93;;;999.90;;
7239;SDS011;3661;53.288;10.458;2023-08-01T02:30:08;1879.37;;;999.90;;
7239;SDS011;3661;53.288;10.458;2023-08-01T02:32:41;1889.40;;;999.90;;
7239;SDS011;3661;53.288;10.458;2023-08-01T02:35:13;1871.40;;;999.90;;
7239;SDS011;3661;53.288;10.458;2023-08-01T02:37:48;1883.13;;;999.90;;
7239;SDS011;3661;53.288;10.458;2023-08-01T02:40:21;1867.90;;;999.90;;
7239;SDS011;3661;53.288;10.458;2023-08-01T02:42:56;1884.75;;;999.90;;
7239;SDS011;3661;53.288;10.458;2023-08-01T02:45:28;1882.40;;;999.90;;
7239;SDS011;3661;53.288;10.458;2023-08-01T02:48:00;1865.68;;;999.90;;
7239;SDS011;3661;53.288;10.458;2023-08-01T02:50:32;1881.28;;;999.90;;
7239;SDS011;3661;53.288;10.458;2023-08-01T02:53:06;1869.40;;;999.90;;
7239;SDS011;3661;53.288;10.458;2023-08-01T02:55:39;1869.60;;;999.90;;
7239;SDS011;3661;53.288;10.458;2023-08-01T02:58:12;1855.72;;;999.90;;
7239;SDS011;3661;53.288;10.458;2023-08-01T03:00:44;1844.30;;;999.90;;
7239;SDS011;3661;53.288;10.458;2023-08-01T03:03:17;1870.78;;;999.90;;
7239;SDS011;3661;53.288;10.458;2023-08-01T03:05:49;1866.03;;;999.90;;
7239;SDS011;3661;53.288;10.458;2023-08-01T03:08:25;1881.18;;;999.90;;
7239;SDS011;3661;53.288;10.458;2023-08-01T03:10:58;1873.47;;;999.90;;
7239;SDS011;3661;53.288;10.458;2023-08-01T03:13:31;1859.07;;;999.90;;
7239;SDS011;3661;53.288;10.458;2023-08-01T03:16:03;1883.47;;;999.90;;
7239;SDS011;3661;53.288;10.458;2023-08-01T03:18:35;1859.15;;;999.90;;
7239;SDS011;3661;53.288;10.458;2023-08-01T03:21:07;1852.30;;;999.90;;
7239;SDS011;3661;53.288;10.458;2023-08-01T03:23:43;1858.35;;;999.90;;
7239;SDS011;3661;53.288;10.458;2023-08-01T03:26:15;1863.53;;;999.90;;
7239;SDS011;3661;53.288;10.458;2023-08-01T03:28:49;1869.47;;;999.90;;
7239;SDS011;3661;53.288;10.458;2023-08-01T03:31:22;1860.72;;;999.90;;
7239;SDS011;3661;53.288;10.458;2023-08-01T03:33:54;1861.88;;;999.90;;
7239;SDS011;3661;53.288;10.458;2023-08-01T03:36:34;1847.45;;;999.90;;
7239;SDS011;3661;53.288;10.458;2023-08-01T03:39:09;1873.10;;;999.90;;
7239;SDS011;3661;53.288;10.458;2023-08-01T03:41:42;1863.00;;;999.90;;
7239;SDS011;3661;53.288;10.458;2023-08-01T03:44:15;1867.25;;;999.90;;
7239;SDS011;3661;53.288;10.458;2023-08-01T03:46:47;1862.40;;;999.90;;
7239;SDS011;3661;53.288;10.458;2023-08-01T03:49:19;1858.37;;;999.90;;
7239;SDS011;3661;53.288;10.458;2023-08-01T03:51:52;1858.55;;;999.90;;
7239;SDS011;3661;53.288;10.458;2023-08-01T03:54:25;1854.45;;;999.90;;
7239;SDS011;3661;53.288;10.458;2023-08-01T03:56:58;1867.38;;;999.90;;
7239;SDS011;3661;53.288;10.458;2023-08-01T03:59:32;1849.70;;;999.90;;
7239;SDS011;3661;53.288;10.458;2023-08-01T04:02:06;1845.38;;;999.90;;
7239;SDS011;3661;53.288;10.458;2023-08-01T04:04:41;1839.60;;;999.90;;
7239;SDS011;3661;53.288;10.458;2023-08-01T04:07:13;1853.87;;;999.90;;
7239;SDS011;3661;53.288;10.458;2023-08-01T04:09:47;1859.20;;;999.90;;
7239;SDS011;3661;53.288;10.458;2023-08-01T04:12:20;1855.32;;;999.90;;
7239;SDS011;3661;53.288;10.458;2023-08-01T04:14:53;1860.50;;;999.90;;
7239;SDS011;3661;53.288;10.458;2023-08-01T04:17:25;1856.85;;;999.90;;
7239;SDS011;3661;53.288;10.458;2023-08-01T04:19:58;1855.80;;;999.90;;
7239;SDS011;3661;53.288;10.458;2023-08-01T04:22:30;1855.05;;;999.90;;
7239;SDS011;3661;53.288;10.458;2023-08-01T04:25:04;1853.25;;;999.90;;
7239;SDS011;3661;53.288;10.458;2023-08-01T04:27:38;1863.77;;;999.90;;
7239;SDS011;3661;53.288;10.458;2023-08-01T04:30:11;1860.83;;;999.90;;
7239;SDS011;3661;53.288;10.458;2023-08-01T04:32:43;1853.80;;;999.90;;
7239;SDS011;3661;53.288;10.458;2023-08-01T04:35:15;1864.30;;;999.90;;
7239;SDS011;3661;53.288;10.458;2023-08-01T04:37:47;1854.78;;;999.90;;
7239;SDS011;3661;53.288;10.458;2023-08-01T04:40:21;1852.45;;;999.90;;
7239;SDS011;3661;53.288;10.458;2023-08-01T04:42:54;1853.65;;;999.90;;
7239;SDS011;3661;53.288;10.458;2023-08-01T04:45:26;1855.70;;;999.90;;
7239;SDS011;3661;53.288;10.458;2023-08-01T04:47:58;1833.32;;;999.90;;
7239;SDS011;3661;53.288;10.458;2023-08-01T04:50:30;1834.23;;;999.90;;
7239;SDS011;3661;53.288;10.458;2023-08-01T04:53:02;1845.30;;;999.90;;
7239;SDS011;3661;53.288;10.458;2023-08-01T04:55:37;1851.63;;;999.90;;
7239;SDS011;3661;53.288;10.458;2023-08-01T04:58:11;1861.28;;;999.90;;
7239;SDS011;3661;53.288;10.458;2023-08-01T05:00:43;1841.50;;;999.90;;
7239;SDS011;3661;53.288;10.458;2023-08-01T05:03:15;1842.30;;;999.90;;
7239;SDS011;3661;53.288;10.458;2023-08-01T05:05:48;1845.53;;;999.90;;
7239;SDS011;3661;53.288;10.458;2023-08-01T05:08:20;1842.22;;;999.90;;
7239;SDS011;3661;53.288;10.458;2023-08-01T05:10:54;1864.40;;;999.90;;
7239;SDS011;3661;53.288;10.458;2023-08-01T05:13:26;1868.18;;;999.90;;
7239;SDS011;3661;53.288;10.458;2023-08-01T05:15:58;1836.95;;;999.90;;
7239;SDS011;3661;53.288;10.458;2023-08-01T05:18:31;1867.13;;;999.90;;
7239;SDS011;3661;53.288;10.458;2023-08-01T05:21:03;1832.85;;;999.90;;
7239;SDS011;3661;53.288;10.458;2023-08-01T05:23:36;1846.43;;;999.90;;
7239;SDS011;3661;53.288;10.458;2023-08-01T05:26:10;1840.25;;;999.90;;
7239;SDS011;3661;53.288;10.458;2023-08-01T05:28:43;1852.15;;;999.90;;
7239;SDS011;3661;53.288;10.458;2023-08-01T05:31:15;1850.70;;;999.90;;
7239;SDS011;3661;53.288;10.458;2023-08-01T05:33:47;1841.88;;;999.90;;
7239;SDS011;3661;53.288;10.458;2023-08-01T05:36:19;1857.53;;;999.90;;
7239;SDS011;3661;53.288;10.458;2023-08-01T05:38:52;1851.65;;;999.90;;
7239;SDS011;3661;53.288;10.458;2023-08-01T05:41:26;1857.88;;;999.90;;
7239;SDS011;3661;53.288;10.458;2023-08-01T05:43:58;1870.43;;;999.90;;
7239;SDS011;3661;53.288;10.458;2023-08-01T05:46:33;1867.53;;;999.90;;
7239;SDS011;3661;53.288;10.458;2023-08-01T05:49:06;1852.50;;;999.90;;
7239;SDS011;3661;53.288;10.458;2023-08-01T05:51:40;1852.47;;;999.90;;
7239;SDS011;3661;53.288;10.458;2023-08-01T05:54:13;1876.13;;;999.90;;
7239;SDS011;3661;53.288;10.458;2023-08-01T05:56:52;1851.15;;;999.90;;
7239;SDS011;3661;53.288;10.458;2023-08-01T05:59:25;1867.97;;;999.90;;
7239;SDS011;3661;53.288;10.458;2023-08-01T06:01:58;1858.38;;;999.90;;
7239;SDS011;3661;53.288;10.458;2023-08-01T06:04:32;1863.97;;;999.90;;
7239;SDS011;3661;53.288;10.458;2023-08-01T06:07:05;1863.63;;;999.90;;
7239;SDS011;3661;53.288;10.458;2023-08-01T06:09:37;1880.40;;;999.90;;
7239;SDS011;3661;53.288;10.458;2023-08-01T06:12:14;1871.72;;;999.90;;
7239;SDS011;3661;53.288;10.458;2023-08-01T06:14:46;1873.60;;;999.90;;
7239;SDS011;3661;53.288;10.458;2023-08-01T06:17:19;1863.32;;;999.90;;
7239;SDS011;3661;53.288;10.458;2023-08-01T06:19:51;1859.73;;;999.90;;
7239;SDS011;3661;53.288;10.458;2023-08-01T06:22:27;1879.47;;;999.90;;
7239;SDS011;3661;53.288;10.458;2023-08-01T06:25:03;1865.78;;;999.90;;
7239;SDS011;3661;53.288;10.458;2023-08-01T06:27:37;1877.50;;;999.90;;
7239;SDS011;3661;53.288;10.458;2023-08-01T06:30:10;1884.90;;;999.90;;
7239;SDS011;3661;53.288;10.458;2023-08-01T06:32:42;1877.82;;;999.90;;
7239;SDS011;3661;53.288;10.458;2023-08-01T06:35:15;1877.55;;;999.90;;
7239;SDS011;3661;53.288;10.458;2023-08-01T06:37:47;1873.00;;;999.90;;
7239;SDS011;3661;53.288;10.458;2023-08-01T06:40:19;1872.15;;;999.90;;
7239;SDS011;3661;53.288;10.458;2023-08-01T06:42:53;1886.35;;;999.90;;
7239;SDS011;3661;53.288;10.458;2023-08-01T06:45:25;1861.53;;;999.90;;
7239;SDS011;3661;53.288;10.458;2023-08-01T06:47:57;1864.47;;;999.90;;
7239;SDS011;3661;53.288;10.458;2023-08-01T06:50:30;1867.50;;;999.90;;
7239;SDS011;3661;53.288;10.458;2023-08-01T06:53:02;1889.82;;;999.90;;
7239;SDS011;3661;53.288;10.458;2023-08-01T06:55:35;1891.95;;;999.90;;
7239;SDS011;3661;53.288;10.458;2023-08-01T06:58:08;1897.55;;;999.90;;
7239;SDS011;3661;53.288;10.458;2023-08-01T07:00:43;1877.32;;;999.90;;
7239;SDS011;3661;53.288;10.458;2023-08-01T07:03:16;1872.00;;;999.90;;
7239;SDS011;3661;53.288;10.458;2023-08-01T07:05:48;1890.32;;;999.90;;
7239;SDS011;3661;53.288;10.458;2023-08-01T07:08:20;1886.00;;;999.90;;
7239;SDS011;3661;53.288;10.458;2023-08-01T07:10:52;1871.70;;;999.90;;
7239;SDS011;3661;53.288;10.458;2023-08-01T07:13:26;1891.80;;;999.90;;
7239;SDS011;3661;53.288;10.458;2023-08-01T07:15:58;1896.50;;;999.90;;
7239;SDS011;3661;53.288;10.458;2023-08-01T07:18:30;1881.57;;;999.90;;
7239;SDS011;3661;53.288;10.458;2023-08-01T07:21:03;1904.00;;;999.90;;
7239;SDS011;3661;53.288;10.458;2023-08-01T07:23:38;1912.05;;;999.90;;
7239;SDS011;3661;53.288;10.458;2023-08-01T07:26:13;1904.80;;;999.90;;
7239;SDS011;3661;53.288;10.458;2023-08-01T07:28:47;1889.00;;;999.90;;
7239;SDS011;3661;53.288;10.458;2023-08-01T07:31:19;1902.93;;;999.90;;
7239;SDS011;3661;53.288;10.458;2023-08-01T07:33:51;1879.22;;;999.90;;
7239;SDS011;3661;53.288;10.458;2023-08-01T07:36:26;1891.17;;;999.90;;
7239;SDS011;3661;53.288;10.458;2023-08-01T07:38:58;1898.60;;;999.90;;
7239;SDS011;3661;53.288;10.458;2023-08-01T07:41:30;1899.25;;;999.90;;
7239;SDS011;3661;53.288;10.458;2023-08-01T07:44:05;1896.05;;;999.90;;
7239;SDS011;3661;53.288;10.458;2023-08-01T07:46:38;1908.05;;;999.90;;
7239;SDS011;3661;53.288;10.458;2023-08-01T07:49:12;1903.43;;;999.90;;
7239;SDS011;3661;53.288;10.458;2023-08-01T07:51:45;1885.75;;;999.90;;
7239;SDS011;3661;53.288;10.458;2023-08-01T07:54:18;1899.55;;;999.90;;
7239;SDS011;3661;53.288;10.458;2023-08-01T07:56:52;1902.45;;;999.90;;
7239;SDS011;3661;53.288;10.458;2023-08-01T07:59:26;1892.57;;;999.90;;
7239;SDS011;3661;53.288;10.458;2023-08-01T08:01:58;1897.63;;;999.90;;
7239;SDS011;3661;53.288;10.458;2023-08-01T08:04:30;1918.47;;;999.90;;
7239;SDS011;3661;53.288;10.458;2023-08-01T08:07:02;1907.60;;;999.90;;
7239;SDS011;3661;53.288;10.458;2023-08-01T08:09:35;1896.13;;;999.90;;
7239;SDS011;3661;53.288;10.458;2023-08-01T08:12:07;1886.18;;;999.90;;
7239;SDS011;3661;53.288;10.458;2023-08-01T08:14:46;1903.10;;;999.90;;
7239;SDS011;3661;53.288;10.458;2023-08-01T08:17:18;1909.77;;;999.90;;
7239;SDS011;3661;53.288;10.458;2023-08-01T08:19:50;1909.93;;;999.90;;
7239;SDS011;3661;53.288;10.458;2023-08-01T08:22:22;1898.15;;;999.90;;
7239;SDS011;3661;53.288;10.458;2023-08-01T08:24:58;1925.53;;;999.90;;
7239;SDS011;3661;53.288;10.458;2023-08-01T08:27:30;1908.25;;;999.90;;
7239;SDS011;3661;53.288;10.458;2023-08-01T08:30:04;1912.15;;;999.90;;
7239;SDS011;3661;53.288;10.458;2023-08-01T08:32:37;1932.57;;;999.90;;
7239;SDS011;3661;53.288;10.458;2023-08-01T08:35:09;1918.38;;;999.90;;
7239;SDS011;3661;53.288;10.458;2023-08-01T08:37:41;1928.35;;;999.90;;
7239;SDS011;3661;53.288;10.458;2023-08-01T08:40:14;1912.35;;;999.90;;
7239;SDS011;3661;53.288;10.458;2023-08-01T08:42:47;1943.25;;;999.90;;
7239;SDS011;3661;53.288;10.458;2023-08-01T08:45:22;1925.20;;;999.90;;
7239;SDS011;3661;53.288;10.458;2023-08-01T08:47:55;1928.53;;;999.90;;
7239;SDS011;3661;53.288;10.458;2023-08-01T08:50:32;1931.80;;;999.90;;
7239;SDS011;3661;53.288;10.458;2023-08-01T08:53:06;1941.72;;;999.90;;
7239;SDS011;3661;53.288;10.458;2023-08-01T08:55:42;1960.78;;;999.90;;
7239;SDS011;3661;53.288;10.458;2023-08-01T08:58:15;1950.70;;;999.90;;
7239;SDS011;3661;53.288;10.458;2023-08-01T09:00:49;1965.88;;;999.90;;
7239;SDS011;3661;53.288;10.458;2023-08-01T09:03:22;1976.85;;;999.90;;
7239;SDS011;3661;53.288;10.458;2023-08-01T09:05:57;1963.32;;;999.90;;
7239;SDS011;3661;53.288;10.458;2023-08-01T09:08:34;1976.80;;;999.90;;
7239;SDS011;3661;53.288;10.458;2023-08-01T09:11:07;1971.65;;;999.90;;
7239;SDS011;3661;53.288;10.458;2023-08-01T09:13:39;1981.75;;;999.90;;
7239;SDS011;3661;53.288;10.458;2023-08-01T09:16:15;1993.78;;;999.90;;
7239;SDS011;3661;53.288;10.458;2023-08-01T09:18:48;1994.50;;;999.90;;
7239;SDS011;3661;53.288;10.458;2023-08-01T09:21:20;1999.90;;;999.90;;
7239;SDS011;3661;53.288;10.458;2023-08-01T09:23:53;1999.90;;;999.90;;
7239;SDS011;3661;53.288;10.458;2023-08-01T09:26:25;1999.90;;;999.90;;
7239;SDS011;3661;53.288;10.458;2023-08-01T09:28:57;1999.90;;;999.90;;
7239;SDS011;3661;53.288;10.458;2023-08-01T09:31:32;1999.90;;;999.90;;
7239;SDS011;3661;53.288;10.458;2023-08-01T09:34:05;1999.90;;;999.90;;
7239;SDS011;3661;53.288;10.458;2023-08-01T09:36:48;1999.90;;;999.90;;
7239;SDS011;3661;53.288;10.458;2023-08-01T09:39:21;1999.90;;;999.90;;
7239;SDS011;3661;53.288;10.458;2023-08-01T09:41:56;1999.90;;;999.90;;
7239;SDS011;3661;53.288;10.458;2023-08-01T09:44:29;1999.90;;;999.90;;
7239;SDS011;3661;53.288;10.458;2023-08-01T09:47:03;1999.90;;;999.90;;
7239;SDS011;3661;53.288;10.458;2023-08-01T09:49:46;1999.90;;;999.90;;
7239;SDS011;3661;53.288;10.458;2023-08-01T09:52:26;1999.90;;;999.90;;
7239;SDS011;3661;53.288;10.458;2023-08-01T09:54:58;1999.90;;;999.90;;
7239;SDS011;3661;53.288;10.458;2023-08-01T09:57:31;1999.90;;;999.90;;
7239;SDS011;3661;53.288;10.458;2023-08-01T10:00:03;1999.90;;;999.90;;
7239;SDS011;3661;53.288;10.458;2023-08-01T10:02:38;1999.90;;;999.90;;
7239;SDS011;3661;53.288;10.458;2023-08-01T10:05:15;1999.90;;;999.90;;
7239;SDS011;3661;53.288;10.458;2023-08-01T10:07:49;1999.90;;;999.90;;
7239;SDS011;3661;53.288;10.458;2023-08-01T10:10:25;1999.90;;;999.90;;
7239;SDS011;3661;53.288;10.458;2023-08-01T10:12:57;1999.90;;;999.90;;
7239;SDS011;3661;53.288;10.458;2023-08-01T10:15:30;1999.90;;;999.90;;
7239;SDS011;3661;53.288;10.458;2023-08-01T10:18:04;1999.90;;;999.90;;
7239;SDS011;3661;53.288;10.458;2023-08-01T10:20:37;1999.90;;;999.90;;
7239;SDS011;3661;53.288;10.458;2023-08-01T10:23:09;1999.90;;;999.90;;
7239;SDS011;3661;53.288;10.458;2023-08-01T10:25:42;1999.90;;;999.90;;
7239;SDS011;3661;53.288;10.458;2023-08-01T10:28:15;1999.90;;;999.90;;
7239;SDS011;3661;53.288;10.458;2023-08-01T10:30:47;1999.90;;;999.90;;
7239;SDS011;3661;53.288;10.458;2023-08-01T10:33:21;1999.90;;;999.90;;
7239;SDS011;3661;53.288;10.458;2023-08-01T10:35:54;1999.90;;;999.90;;
7239;SDS011;3661;53.288;10.458;2023-08-01T10:38:26;1999.90;;;999.90;;
7239;SDS011;3661;53.288;10.458;2023-08-01T10:40:59;1999.90;;;999.90;;
7239;SDS011;3661;53.288;10.458;2023-08-01T10:43:31;1999.90;;;999.90;;
7239;SDS011;3661;53.288;10.458;2023-08-01T10:46:03;1999.90;;;999.90;;
7239;SDS011;3661;53.288;10.458;2023-08-01T10:48:38;1999.90;;;999.90;;
7239;SDS011;3661;53.288;10.458;2023-08-01T10:51:19;1999.90;;;999.90;;
7239;SDS011;3661;53.288;10.458;2023-08-01T10:53:51;1999.90;;;999.90;;
7239;SDS011;3661;53.288;10.458;2023-08-01T10:56:24;1999.90;;;999.90;;
7239;SDS011;3661;53.288;10.458;2023-08-01T10:58:56;1999.90;;;999.90;;
7239;SDS011;3661;53.288;10.458;2023-08-01T11:01:29;1999.90;;;999.90;;
7239;SDS011;3661;53.288;10.458;2023-08-01T11:04:02;1999.90;;;999.90;;
7239;SDS011;3661;53.288;10.458;2023-08-01T11:06:45;1999.90;;;999.90;;
7239;SDS011;3661;53.288;10.458;2023-08-01T11:09:18;1999.90;;;999.90;;
7239;SDS011;3661;53.288;10.458;2023-08-01T11:11:53;1999.90;;;999.90;;
7239;SDS011;3661;53.288;10.458;2023-08-01T11:14:27;1999.90;;;999.90;;
7239;SDS011;3661;53.288;10.458;2023-08-01T11:17:00;1999.90;;;999.90;;
7239;SDS011;3661;53.288;10.458;2023-08-01T11:19:33;1999.90;;;999.90;;
7239;SDS011;3661;53.288;10.458;2023-08-01T11:22:08;1999.90;;;999.90;;
7239;SDS011;3661;53.288;10.458;2023-08-01T11:24:41;1999.90;;;999.90;;
7239;SDS011;3661;53.288;10.458;2023-08-01T11:27:21;1999.90;;;999.90;;
7239;SDS011;3661;53.288;10.458;2023-08-01T11:29:54;1999.90;;;999.90;;
7239;SDS011;3661;53.288;10.458;2023-08-01T11:32:33;1999.90;;;999.90;;
7239;SDS011;3661;53.288;10.458;2023-08-01T11:35:07;1999.90;;;999.90;;
7239;SDS011;3661;53.288;10.458;2023-08-01T11:37:40;1999.90;;;999.90;;
7239;SDS011;3661;53.288;10.458;2023-08-01T11:40:12;1999.90;;;999.90;;
7239;SDS011;3661;53.288;10.458;2023-08-01T11:42:48;1999.90;;;999.90;;
7239;SDS011;3661;53.288;10.458;2023-08-01T11:45:22;1999.90;;;999.90;;
7239;SDS011;3661;53.288;10.458;2023-08-01T11:47:54;1999.90;;;999.90;;
7239;SDS011;3661;53.288;10.458;2023-08-01T11:50:27;1999.90;;;999.90;;
7239;SDS011;3661;53.288;10.458;2023-08-01T11:52:59;1999.90;;;999.90;;
7239;SDS011;3661;53.288;10.458;2023-08-01T11:55:32;1999.90;;;999.90;;
7239;SDS011;3661;53.288;10.458;2023-08-01T11:58:08;1999.90;;;999.90;;
7239;SDS011;3661;53.288;10.458;2023-08-01T12:10:45;1999.90;;;999.90;;
7239;SDS011;3661;53.288;10.458;2023-08-01T12:13:21;1999.90;;;999.90;;
7239;SDS011;3661;53.288;10.458;2023-08-01T12:15:54;1999.90;;;999.90;;
7239;SDS011;3661;53.288;10.458;2023-08-01T12:18:28;1999.90;;;999.90;;
7239;SDS011;3661;53.288;10.458;2023-08-01T12:21:00;1999.90;;;999.90;;
7239;SDS011;3661;53.288;10.458;2023-08-01T12:23:35;1999.90;;;999.90;;
7239;SDS011;3661;53.288;10.458;2023-08-01T13:31:57;1999.90;;;999.90;;
7239;SDS011;3661;53.288;10.458;2023-08-01T13:34:29;1999.90;;;999.90;;
7239;SDS011;3661;53.288;10.458;2023-08-01T13:37:01;1999.90;;;999.90;;
7239;SDS011;3661;53.288;10.458;2023-08-01T13:39:34;1999.90;;;999.90;;
7239;SDS011;3661;53.288;10.458;2023-08-01T13:42:06;1999.90;;;999.90;;
7239;SDS011;3661;53.288;10.458;2023-08-01T13:44:38;1999.90;;;999.90;;
7239;SDS011;3661;53.288;10.458;2023-08-01T13:50:12;1999.90;;;999.90;;
7239;SDS011;3661;53.288;10.458;2023-08-01T13:53:13;1999.90;;;999.90;;
7239;SDS011;3661;53.288;10.458;2023-08-01T13:56:21;1999.90;;;999.90;;
7239;SDS011;3661;53.288;10.458;2023-08-01T13:58:55;1999.90;;;999.90;;
7239;SDS011;3661;53.288;10.458;2023-08-01T14:01:27;1999.90;;;999.90;;
7239;SDS011;3661;53.288;10.458;2023-08-01T14:04:03;1999.90;;;999.90;;
7239;SDS011;3661;53.288;10.458;2023-08-01T14:06:35;1999.90;;;999.90;;
7239;SDS011;3661;53.288;10.458;2023-08-01T14:09:08;1999.90;;;999.90;;
7239;SDS011;3661;53.288;10.458;2023-08-01T14:11:41;1999.90;;;999.90;;
7239;SDS011;3661;53.288;10.458;2023-08-01T14:14:29;1999.90;;;999.90;;
7239;SDS011;3661;53.288;10.458;2023-08-01T14:17:05;1999.90;;;999.90;;
7239;SDS011;3661;53.288;10.458;2023-08-01T14:19:40;1999.90;;;999.90;;
7239;SDS011;3661;53.288;10.458;2023-08-01T14:22:12;1999.90;;;999.90;;
7239;SDS011;3661;53.288;10.458;2023-08-01T14:24:44;1999.90;;;999.90;;
7239;SDS011;3661;53.288;10.458;2023-08-01T14:27:17;1999.90;;;999.90;;
7239;SDS011;3661;53.288;10.458;2023-08-01T14:29:49;1999.90;;;999.90;;
7239;SDS011;3661;53.288;10.458;2023-08-01T14:32:21;1999.90;;;999.90;;
7239;SDS011;3661;53.288;10.458;2023-08-01T14:35:03;1999.90;;;999.90;;
7239;SDS011;3661;53.288;10.458;2023-08-01T14:37:43;1999.90;;;999.90;;
7239;SDS011;3661;53.288;10.458;2023-08-01T14:40:31;1999.90;;;999.90;;
7239;SDS011;3661;53.288;10.458;2023-08-01T14:43:06;1999.90;;;999.90;;
7239;SDS011;3661;53.288;10.458;2023-08-01T14:45:39;1999.90;;;999.90;;
7239;SDS011;3661;53.288;10.458;2023-08-01T14:48:12;1999.90;;;999.90;;
7239;SDS011;3661;53.288;10.458;2023-08-01T14:50:46;1999.90;;;999.90;;
7239;SDS011;3661;53.288;10.458;2023-08-01T14:53:18;1999.90;;;999.90;;
7239;SDS011;3661;53.288;10.458;2023-08-01T14:55:55;1999.90;;;999.90;;
7239;SDS011;3661;53.288;10.458;2023-08-01T14:58:29;1999.90;;;999.90;;
7239;SDS011;3661;53.288;10.458;2023-08-01T15:01:03;1999.90;;;999.90;;
7239;SDS011;3661;53.288;10.458;2023-08-01T15:03:35;1999.90;;;999.90;;
7239;SDS011;3661;53.288;10.458;2023-08-01T15:06:09;1999.90;;;999.90;;
7239;SDS011;3661;53.288;10.458;2023-08-01T15:08:41;1999.90;;;999.90;;
7239;SDS011;3661;53.288;10.458;2023-08-01T15:11:13;1999.90;;;999.90;;
7239;SDS011;3661;53.288;10.458;2023-08-01T15:13:46;1999.90;;;999.90;;
7239;SDS011;3661;53.288;10.458;2023-08-01T15:16:18;1998.80;;;999.90;;
7239;SDS011;3661;53.288;10.458;2023-08-01T15:18:50;1999.90;;;999.90;;
7239;SDS011;3661;53.288;10.458;2023-08-01T15:21:23;1999.90;;;999.90;;
7239;SDS011;3661;53.288;10.458;2023-08-01T15:23:56;1999.90;;;999.90;;
7239;SDS011;3661;53.288;10.458;2023-08-01T15:26:29;1999.90;;;999.90;;
7239;SDS011;3661;53.288;10.458;2023-08-01T15:29:01;1999.90;;;999.90;;
7239;SDS011;3661;53.288;10.458;2023-08-01T15:31:34;1999.90;;;999.90;;
7239;SDS011;3661;53.288;10.458;2023-08-01T15:34:06;1999.90;;;999.90;;
7239;SDS011;3661;53.288;10.458;2023-08-01T15:36:40;1988.60;;;999.90;;
7239;SDS011;3661;53.288;10.458;2023-08-01T15:39:18;1999.90;;;999.90;;
7239;SDS011;3661;53.288;10.458;2023-08-01T15:41:50;1999.90;;;999.90;;
7239;SDS011;3661;53.288;10.458;2023-08-01T15:44:22;1999.90;;;999.90;;
7239;SDS011;3661;53.288;10.458;2023-08-01T15:46:54;1995.85;;;999.90;;
7239;SDS011;3661;53.288;10.458;2023-08-01T15:49:26;1999.90;;;999.90;;
7239;SDS011;3661;53.288;10.458;2023-08-01T15:52:00;1999.90;;;999.90;;